Time;durP1;ratioP1;P1;durP2;ratioP2;P2;SDS_P1;SDS_P2;PMS_P1;PMS_P2;Temp;Humidity;BMP_temperature;BMP_pressure;BME280_temperature;BME280_humidity;BME280_pressure;Samples;Min_cycle;Max_cycle;Signal;HPM_P1;HPM_P2
2022/08/29 00:01:16;;;;;;;5.82;2.65;;;;;;;14.04;100.00;102143.56;5267116;28;20484;-74
2022/08/29 00:03:47;;;;;;;8.05;2.17;;;;;;;13.96;100.00;102145.22;5267592;28;20020;-74
2022/08/29 00:06:17;;;;;;;4.55;2.20;;;;;;;13.93;100.00;102147.38;5260069;28;20428;-74
2022/08/29 00:08:48;;;;;;;6.93;3.08;;;;;;;13.85;100.00;102145.44;5274541;28;20080;-74
2022/08/29 00:11:19;;;;;;;12.20;3.15;;;;;;;13.75;100.00;102139.28;5288916;28;20488;-74
2022/08/29 00:13:49;;;;;;;7.72;3.03;;;;;;;13.64;100.00;102132.28;5268369;28;20027;-74
2022/08/29 00:16:20;;;;;;;9.98;3.78;;;;;;;13.57;100.00;102136.63;5279744;28;20110;-74
2022/08/29 00:18:50;;;;;;;8.52;2.55;;;;;;;13.51;100.00;102125.63;5281010;28;20027;-74
2022/08/29 00:21:21;;;;;;;7.40;2.88;;;;;;;13.49;100.00;102128.44;5266791;28;20497;-74
2022/08/29 00:23:51;;;;;;;3.90;2.72;;;;;;;13.45;100.00;102132.44;5274811;28;20031;-74
2022/08/29 00:26:23;;;;;;;6.10;2.83;;;;;;;13.42;100.00;102130.91;5287242;28;20397;-74
2022/08/29 00:28:53;;;;;;;6.30;2.58;;;;;;;13.39;100.00;102131.22;5287672;28;20106;-74
2022/08/29 00:31:24;;;;;;;6.72;3.30;;;;;;;13.35;100.00;102135.22;5288421;28;20106;-74
2022/08/29 00:33:56;;;;;;;4.78;2.58;;;;;;;13.32;100.00;102134.69;5287865;28;20214;-74
2022/08/29 00:36:26;;;;;;;4.80;2.50;;;;;;;13.29;100.00;102135.84;5287088;28;20030;-74
2022/08/29 00:38:57;;;;;;;6.38;2.80;;;;;;;13.26;100.00;102136.16;5269299;28;20043;-74
2022/08/29 00:41:29;;;;;;;8.25;2.85;;;;;;;13.23;100.00;102146.38;5266712;28;20022;-75
2022/08/29 00:44:00;;;;;;;5.93;3.05;;;;;;;13.18;100.00;102142.25;5266448;28;20489;-74
2022/08/29 00:46:42;;;;;;;7.03;3.60;;;;;;;13.12;100.00;102145.56;5274097;28;20026;-74
2022/08/29 00:49:50;;;;;;;6.95;3.13;;;;;;;13.05;100.00;102139.09;5282796;28;20036;-73
2022/08/29 00:52:30;;;;;;;8.00;3.15;;;;;;;12.96;100.00;102146.22;5268846;28;20035;-73
2022/08/29 00:55:08;;;;;;;9.82;3.33;;;;;;;12.92;100.00;102141.28;5275633;28;20028;-73
2022/08/29 00:57:45;;;;;;;8.70;3.13;;;;;;;12.89;100.00;102139.72;5265033;28;20032;-73
2022/08/29 01:00:16;;;;;;;8.80;3.33;;;;;;;12.85;100.00;102141.06;5280425;28;20085;-73
2022/08/29 01:02:47;;;;;;;8.18;3.15;;;;;;;12.80;100.00;102142.47;5287674;28;20118;-73
2022/08/29 01:05:18;;;;;;;8.10;3.63;;;;;;;12.77;100.00;102142.78;5286884;28;20103;-73
2022/08/29 01:07:50;;;;;;;7.22;3.30;;;;;;;12.75;100.00;102145.63;5269491;28;20551;-72
2022/08/29 01:13:12;;;;;;;6.25;3.28;;;;;;;12.80;100.00;102148.72;5267100;28;20036;-73
2022/08/29 01:15:45;;;;;;;11.02;3.75;;;;;;;12.87;100.00;102147.13;5273991;28;20370;-73
2022/08/29 01:18:17;;;;;;;8.77;3.38;;;;;;;12.90;100.00;102138.75;5285284;28;20477;-74
2022/08/29 01:21:06;;;;;;;9.50;3.67;;;;;;;12.93;100.00;102149.22;5275366;28;20015;-73
2022/08/29 01:23:40;;;;;;;8.73;3.70;;;;;;;12.94;100.00;102141.97;5282649;28;20089;-72
2022/08/29 01:26:12;;;;;;;10.07;3.80;;;;;;;12.94;100.00;102140.13;5266143;28;20024;-73
2022/08/29 01:28:47;;;;;;;10.75;3.65;;;;;;;12.96;100.00;102150.78;5279513;28;20568;-73
2022/08/29 01:31:21;;;;;;;8.98;4.15;;;;;;;12.96;100.00;102140.84;5274530;28;20015;-73
2022/08/29 01:33:56;;;;;;;8.95;4.78;;;;;;;12.99;100.00;102138.84;5287805;28;20030;-74
2022/08/29 01:36:35;;;;;;;8.10;3.67;;;;;;;13.02;100.00;102141.25;5263390;28;20104;-74
2022/08/29 01:39:06;;;;;;;8.38;3.88;;;;;;;13.06;100.00;102142.63;5267535;28;20107;-72
2022/08/29 01:41:37;;;;;;;10.60;3.70;;;;;;;13.08;100.00;102149.56;5278118;28;20052;-72
2022/08/29 01:44:11;;;;;;;7.95;3.60;;;;;;;13.09;100.00;102145.00;5249821;28;20028;-72
2022/08/29 01:46:42;;;;;;;7.55;3.80;;;;;;;13.07;100.00;102150.56;5286705;28;20023;-73
2022/08/29 01:49:14;;;;;;;9.40;4.25;;;;;;;13.08;100.00;102146.88;5268651;28;20081;-73
2022/08/29 01:51:46;;;;;;;8.60;3.80;;;;;;;13.10;100.00;102149.41;5259425;28;20066;-73
2022/08/29 01:54:18;;;;;;;19.55;4.95;;;;;;;13.08;100.00;102146.88;5285275;28;20046;-73
2022/08/29 01:56:52;;;;;;;;;;;;;;;13.07;100.00;102150.56;5287122;28;20028;-72
2022/08/29 01:59:26;;;;;;;13.15;5.25;;;;;;;13.04;100.00;102145.47;5278760;28;20422;-72
2022/08/29 02:01:59;;;;;;;10.90;4.63;;;;;;;13.03;100.00;102142.94;5265261;28;20024;-73
2022/08/29 02:04:31;;;;;;;13.85;5.43;;;;;;;13.02;100.00;102143.94;5264744;28;20024;-73
2022/08/29 02:07:02;;;;;;;9.25;5.10;;;;;;;13.01;100.00;102139.56;5265328;28;20029;-73
2022/08/29 02:09:33;;;;;;;19.45;6.03;;;;;;;13.01;100.00;102140.41;5290839;28;20019;-73
2022/08/29 02:12:06;;;;;;;8.48;4.55;;;;;;;13.02;100.00;102142.09;5285354;28;20505;-73
2022/08/29 02:14:38;;;;;;;14.43;5.45;;;;;;;13.02;100.00;102144.78;5268797;28;20606;-73
2022/08/29 02:17:19;;;;;;;14.05;5.50;;;;;;;13.03;100.00;102137.53;5278209;28;20062;-72
2022/08/29 02:19:50;;;;;;;15.25;6.30;;;;;;;13.04;100.00;102131.16;5274349;28;20473;-74
2022/08/29 02:22:20;;;;;;;11.75;5.20;;;;;;;13.07;100.00;102141.63;5251809;28;20062;-72
2022/08/29 02:24:51;;;;;;;14.50;5.30;;;;;;;13.06;100.00;102135.41;5274588;28;20023;-73
2022/08/29 02:27:21;;;;;;;12.48;5.13;;;;;;;13.09;100.00;102134.25;5284163;28;20331;-72
2022/08/29 02:29:52;;;;;;;11.27;5.32;;;;;;;13.10;100.00;102133.22;5290041;28;20065;-72
2022/08/29 02:32:22;;;;;;;17.20;5.80;;;;;;;13.07;100.00;102137.09;5278034;28;20019;-74
2022/08/29 02:34:53;;;;;;;11.52;5.55;;;;;;;13.03;100.00;102137.53;5279447;28;20019;-74
2022/08/29 02:37:24;;;;;;;14.38;5.85;;;;;;;13.00;100.00;102135.97;5276476;28;20565;-73
2022/08/29 02:39:54;;;;;;;12.05;5.63;;;;;;;12.98;100.00;102134.44;5269113;28;20490;-74
2022/08/29 02:42:25;;;;;;;13.52;5.30;;;;;;;12.96;100.00;102137.31;5269006;28;20046;-74
2022/08/29 02:44:55;;;;;;;15.20;6.07;;;;;;;12.95;100.00;102132.88;5277720;28;20396;-74
2022/08/29 02:47:26;;;;;;;19.55;6.15;;;;;;;12.93;100.00;102127.66;5289705;28;20033;-74
2022/08/29 02:49:57;;;;;;;16.70;5.85;;;;;;;12.93;100.00;102133.06;5289655;28;20020;-74
2022/08/29 02:52:27;;;;;;;14.48;5.13;;;;;;;12.93;100.00;102127.66;5289936;28;20019;-72
2022/08/29 02:54:58;;;;;;;17.05;5.53;;;;;;;12.94;100.00;102128.50;5289612;28;20016;-71
2022/08/29 02:57:29;;;;;;;9.02;5.20;;;;;;;12.93;100.00;102126.81;5288867;28;20027;-72
2022/08/29 02:59:59;;;;;;;15.25;5.97;;;;;;;12.92;100.00;102133.22;5289130;28;20392;-72
2022/08/29 03:02:30;;;;;;;16.95;5.53;;;;;;;12.92;100.00;102127.81;5275654;28;20249;-72
2022/08/29 03:05:01;;;;;;;13.70;5.55;;;;;;;12.92;100.00;102130.53;5289326;28;20026;-72
2022/08/29 03:07:31;;;;;;;16.80;5.35;;;;;;;12.93;100.00;102135.75;5282137;28;20038;-73
2022/08/29 03:10:03;;;;;;;14.35;6.00;;;;;;;12.94;100.00;102132.03;5269953;28;20129;-71
2022/08/29 03:12:35;;;;;;;13.40;6.50;;;;;;;12.95;100.00;102135.59;5289596;28;20031;-71
2022/08/29 03:15:07;;;;;;;14.50;5.72;;;;;;;12.94;100.00;102123.97;5288455;28;20027;-72
2022/08/29 03:17:38;;;;;;;15.05;5.82;;;;;;;12.92;100.00;102122.44;5279087;28;20031;-71
2022/08/29 03:20:10;;;;;;;15.48;5.97;;;;;;;12.92;100.00;102125.97;5270958;28;20020;-71
2022/08/29 03:22:40;;;;;;;13.48;5.50;;;;;;;12.90;100.00;102129.81;5289340;28;20143;-71
2022/08/29 03:25:12;;;;;;;12.60;5.35;;;;;;;12.90;100.00;102119.03;5269979;28;20024;-71
2022/08/29 03:27:43;;;;;;;17.67;5.78;;;;;;;12.90;100.00;102122.59;5280988;28;20559;-71
2022/08/29 03:30:16;;;;;;;15.30;5.63;;;;;;;12.90;100.00;102127.97;5289068;28;20016;-72
2022/08/29 03:32:47;;;;;;;10.30;4.95;;;;;;;12.90;100.00;102121.72;5289310;28;20026;-71
2022/08/29 03:35:18;;;;;;;9.15;4.68;;;;;;;12.90;100.00;102127.09;5288481;28;20027;-71
2022/08/29 03:37:50;;;;;;;14.82;5.90;;;;;;;12.88;100.00;102123.72;5257027;28;20069;-71
2022/08/29 03:40:21;;;;;;;12.90;5.63;;;;;;;12.84;100.00;102123.19;5288775;28;20123;-72
2022/08/29 03:42:52;;;;;;;14.27;5.70;;;;;;;12.81;100.00;102122.66;5289183;28;20536;-72
2022/08/29 03:45:24;;;;;;;10.90;4.72;;;;;;;12.79;100.00;102116.53;5275666;28;20030;-72
2022/08/29 03:47:54;;;;;;;18.67;5.45;;;;;;;12.80;100.00;102115.53;5267711;28;20057;-72
2022/08/29 03:50:25;;;;;;;16.73;5.25;;;;;;;12.85;100.00;102121.31;5281393;28;20031;-72
2022/08/29 03:52:55;;;;;;;9.98;4.63;;;;;;;12.88;100.00;102115.66;5270735;28;20023;-72
2022/08/29 03:55:26;;;;;;;13.65;5.55;;;;;;;12.86;100.00;102118.50;5269778;28;20027;-72
2022/08/29 03:57:56;;;;;;;13.70;4.95;;;;;;;12.83;100.00;102112.56;5288856;28;20023;-71
2022/08/29 04:00:27;;;;;;;12.95;5.45;;;;;;;12.80;100.00;102120.94;5288657;28;20481;-73
2022/08/29 04:02:58;;;;;;;9.48;5.45;;;;;;;12.76;100.00;102128.47;5278750;28;20247;-72
2022/08/29 04:05:28;;;;;;;11.48;5.72;;;;;;;12.76;100.00;102123.09;5270946;28;20110;-73
2022/08/29 04:07:59;;;;;;;16.08;4.90;;;;;;;12.76;100.00;102130.34;5277090;28;20052;-72
2022/08/29 04:10:33;;;;;;;12.80;5.07;;;;;;;12.81;100.00;102134.25;5272583;28;20022;-71
2022/08/29 04:13:05;;;;;;;12.05;5.10;;;;;;;12.84;100.00;102133.94;5288417;28;20076;-72
2022/08/29 04:15:39;;;;;;;12.70;5.18;;;;;;;12.85;100.00;102134.78;5273399;28;20439;-71
2022/08/29 04:18:10;;;;;;;14.23;4.80;;;;;;;12.85;100.00;102138.38;5273781;28;20023;-72
2022/08/29 04:20:43;;;;;;;15.40;5.78;;;;;;;12.81;100.00;102136.13;5267256;28;20023;-71
2022/08/29 04:23:14;;;;;;;14.65;5.65;;;;;;;12.77;100.00;102138.25;5270479;28;20038;-72
2022/08/29 04:25:44;;;;;;;14.18;5.57;;;;;;;12.73;100.00;102136.00;5276592;28;20028;-72
2022/08/29 04:28:16;;;;;;;12.38;5.28;;;;;;;12.68;100.00;102134.59;5285130;28;20075;-72
2022/08/29 04:30:49;;;;;;;12.23;6.15;;;;;;;12.66;100.00;102136.59;5274999;28;20364;-72
2022/08/29 04:33:22;;;;;;;13.57;6.15;;;;;;;12.64;100.00;102133.19;5280413;28;20043;-72
2022/08/29 04:35:52;;;;;;;16.45;7.93;;;;;;;12.63;100.00;102139.56;5270794;28;20036;-71
2022/08/29 04:38:23;;;;;;;16.08;5.65;;;;;;;12.64;100.00;102145.81;5274934;28;20099;-71
2022/08/29 04:40:53;;;;;;;13.00;5.30;;;;;;;12.67;100.00;102146.38;5274144;28;20037;-72
2022/08/29 04:43:24;;;;;;;14.45;5.55;;;;;;;12.72;100.00;102153.16;5287471;28;20043;-72
2022/08/29 04:45:56;;;;;;;17.17;5.38;;;;;;;12.73;100.00;102154.84;5287048;28;20020;-73
2022/08/29 04:48:27;;;;;;;14.75;5.78;;;;;;;12.70;100.00;102154.16;5276600;28;20028;-72
2022/08/29 04:51:00;;;;;;;13.73;5.97;;;;;;;12.67;100.00;102153.59;5266256;28;20027;-72
2022/08/29 04:53:31;;;;;;;17.30;5.72;;;;;;;12.62;100.00;102153.19;5278858;28;20026;-71
2022/08/29 04:56:07;;;;;;;11.02;5.72;;;;;;;12.59;100.00;102164.25;5280514;28;20024;-72
2022/08/29 04:58:40;;;;;;;14.40;5.70;;;;;;;12.54;100.00;102156.63;5266192;28;20042;-72
2022/08/29 05:01:12;;;;;;;17.33;5.82;;;;;;;12.49;100.00;102158.06;5256886;28;20032;-72
2022/08/29 05:03:43;;;;;;;16.95;6.15;;;;;;;12.44;100.00;102170.09;5270887;28;20035;-72
2022/08/29 05:06:16;;;;;;;11.30;6.13;;;;;;;12.40;100.00;102165.19;5276462;28;20023;-72
2022/08/29 05:08:46;;;;;;;13.98;5.60;;;;;;;12.37;100.00;102163.63;5287244;28;20388;-72
2022/08/29 05:11:18;;;;;;;19.85;7.13;;;;;;;12.36;100.00;102166.47;5275743;28;20024;-72
2022/08/29 05:13:52;;;;;;;11.88;5.70;;;;;;;12.34;100.00;102166.59;5278184;28;20074;-72
2022/08/29 05:16:22;;;;;;;15.63;5.68;;;;;;;12.37;100.00;102169.00;5265418;28;20098;-71
2022/08/29 05:18:53;;;;;;;18.30;5.88;;;;;;;12.42;100.00;102165.88;5279682;28;20035;-72
2022/08/29 05:21:27;;;;;;;12.98;5.80;;;;;;;12.44;100.00;102178.19;5266008;28;20490;-72
2022/08/29 05:23:58;;;;;;;15.25;5.68;;;;;;;12.47;100.00;102178.91;5265825;28;20028;-71
2022/08/29 05:26:44;;;;;;;10.55;5.78;;;;;;;12.47;100.00;102177.06;5268061;28;20043;-72
2022/08/29 05:29:14;;;;;;;14.98;6.13;;;;;;;12.49;100.00;102176.91;5286774;28;20496;-72
2022/08/29 05:31:46;;;;;;;10.63;5.35;;;;;;;12.54;100.00;102188.06;5279753;28;20058;-72
2022/08/29 05:34:17;;;;;;;13.85;5.90;;;;;;;12.60;100.00;102187.47;5278712;28;20039;-72
2022/08/29 05:36:47;;;;;;;13.93;5.75;;;;;;;12.66;100.00;102190.44;5275235;28;20026;-72
2022/08/29 05:39:18;;;;;;;20.60;6.05;;;;;;;12.74;100.00;102191.53;5286576;28;20019;-72
2022/08/29 05:41:49;;;;;;;12.73;5.30;;;;;;;12.80;100.00;102186.44;5276385;28;20028;-72
2022/08/29 05:44:19;;;;;;;16.95;5.68;;;;;;;12.89;100.00;102182.81;5268030;28;20028;-72
2022/08/29 05:46:50;;;;;;;12.30;5.45;;;;;;;12.99;100.00;102179.25;5287304;28;20024;-72
2022/08/29 05:49:20;;;;;;;12.38;5.72;;;;;;;13.08;100.00;102181.03;5286164;28;20061;-72
2022/08/29 05:51:52;;;;;;;12.57;5.85;;;;;;;13.23;100.00;102187.66;5286776;28;20023;-72
2022/08/29 05:54:23;;;;;;;16.67;6.28;;;;;;;13.40;100.00;102189.53;5279399;28;20069;-72
2022/08/29 05:56:54;;;;;;;18.60;6.38;;;;;;;13.60;100.00;102195.63;5261254;28;20085;-73
2022/08/29 05:59:24;;;;;;;15.43;6.55;;;;;;;13.87;100.00;102199.25;5265680;28;20027;-72
2022/08/29 06:01:55;;;;;;;20.08;6.72;;;;;;;14.03;100.00;102194.00;5266974;28;20035;-72
2022/08/29 06:04:26;;;;;;;13.07;5.50;;;;;;;14.15;100.00;102197.28;5276653;28;20036;-72
2022/08/29 06:06:56;;;;;;;23.98;7.00;;;;;;;14.36;100.00;102196.97;5265509;28;20047;-72
2022/08/29 06:09:27;;;;;;;12.90;5.57;;;;;;;14.71;100.00;102204.13;5276150;28;20165;-72
2022/08/29 06:11:58;;;;;;;13.45;5.30;;;;;;;15.18;100.00;102200.94;5268368;28;20020;-73
2022/08/29 06:14:29;;;;;;;15.95;5.90;;;;;;;15.60;100.00;102200.03;5264294;28;20032;-72
2022/08/29 06:17:00;;;;;;;12.38;4.97;;;;;;;15.94;100.00;102194.53;5279056;28;20500;-72
2022/08/29 06:19:46;;;;;;;15.30;5.03;;;;;;;16.10;100.00;102202.63;5265204;28;20024;-72
2022/08/29 06:22:18;;;;;;;11.77;5.50;;;;;;;16.16;100.00;102201.13;5274843;28;20123;-72
2022/08/29 06:24:51;;;;;;;16.13;5.68;;;;;;;16.31;100.00;102202.97;5271746;28;20039;-72
2022/08/29 06:27:22;;;;;;;8.35;4.55;;;;;;;16.57;100.00;102194.63;5276807;28;20016;-72
2022/08/29 06:29:52;;;;;;;17.33;4.78;;;;;;;16.76;100.00;102190.69;5280614;28;20069;-72
2022/08/29 06:32:23;;;;;;;22.98;5.20;;;;;;;16.94;100.00;102185.06;5265452;28;20055;-72
2022/08/29 06:34:53;;;;;;;15.00;5.35;;;;;;;17.33;100.00;102190.47;5268138;28;20111;-71
2022/08/29 06:37:24;;;;;;;17.20;4.80;;;;;;;18.09;100.00;102187.91;5278665;28;20024;-72
2022/08/29 06:39:54;;;;;;;23.30;5.47;;;;;;;18.72;100.00;102189.31;5265059;28;20024;-72
2022/08/29 06:42:25;;;;;;;22.25;6.05;;;;;;;19.18;100.00;102200.00;5262981;28;20023;-72
2022/08/29 06:44:56;;;;;;;19.40;4.72;;;;;;;19.69;100.00;102201.84;5285270;28;20038;-72
2022/08/29 06:47:27;;;;;;;13.55;4.60;;;;;;;20.10;100.00;102199.31;5268554;28;20028;-72
2022/08/29 06:49:57;;;;;;;10.35;4.00;;;;;;;20.30;100.00;102196.75;5265014;28;20027;-72
2022/08/29 06:52:28;;;;;;;12.90;4.28;;;;;;;20.31;100.00;102193.81;5268930;28;20055;-72
2022/08/29 06:54:58;;;;;;;10.88;3.92;;;;;;;20.26;100.00;102188.09;5288856;28;20077;-72
2022/08/29 06:57:29;;;;;;;14.43;4.20;;;;;;;20.09;100.00;102198.47;5290314;28;20054;-72
2022/08/29 06:59:59;;;;;;;11.48;4.10;;;;;;;19.83;100.00;102204.53;5257933;28;20028;-72
2022/08/29 07:02:30;;;;;;;16.38;4.05;;;;;;;19.47;100.00;102198.22;5289641;28;20311;-72
2022/08/29 07:05:00;;;;;;;9.32;4.57;;;;;;;18.81;100.00;102203.66;5288075;28;20038;-72
2022/08/29 07:07:31;;;;;;;10.30;3.92;;;;;;;18.33;100.00;102203.16;5277406;28;20035;-72
2022/08/29 07:10:01;;;;;;;12.35;4.72;;;;;;;18.23;100.00;102199.84;5289569;28;20020;-72
2022/08/29 07:12:32;;;;;;;13.18;4.03;;;;;;;18.63;100.00;102214.91;5279532;28;20419;-72
2022/08/29 07:15:04;;;;;;;14.75;4.10;;;;;;;18.86;100.00;102212.94;5281626;28;20486;-72
2022/08/29 07:17:34;;;;;;;8.50;3.75;;;;;;;18.83;100.00;102212.50;5279944;28;20492;-72
2022/08/29 07:20:06;;;;;;;9.10;4.28;;;;;;;18.75;100.00;102218.84;5257595;28;20019;-72
2022/08/29 07:22:37;;;;;;;7.10;3.75;;;;;;;18.64;100.00;102213.84;5276445;28;20028;-72
2022/08/29 07:25:09;;;;;;;12.98;4.70;;;;;;;18.64;100.00;102213.84;5267151;28;20024;-72
2022/08/29 07:27:39;;;;;;;13.43;4.40;;;;;;;18.55;100.00;102204.94;5271219;28;20024;-72
2022/08/29 07:30:10;;;;;;;15.02;4.63;;;;;;;18.45;100.00;102204.38;5289039;28;20027;-72
2022/08/29 07:32:44;;;;;;;16.02;5.18;;;;;;;18.33;100.00;102201.28;5289348;28;20111;-72
2022/08/29 07:35:16;;;;;;;12.10;4.38;;;;;;;18.31;100.00;102202.47;5278787;28;20031;-72
2022/08/29 07:37:46;;;;;;;13.57;4.22;;;;;;;18.34;100.00;102199.41;5271535;28;20032;-72
2022/08/29 07:40:17;;;;;;;12.10;4.07;;;;;;;18.95;100.00;102215.59;5288592;28;20092;-72
2022/08/29 07:42:47;;;;;;;10.93;3.28;;;;;;;19.83;100.00;102211.81;5270424;28;20028;-72
2022/08/29 07:45:18;;;;;;;8.35;3.70;;;;;;;21.03;100.00;102206.22;5267403;28;20043;-73
2022/08/29 07:47:48;;;;;;;8.57;3.15;;;;;;;21.56;100.00;102203.72;5273784;28;20392;-72
2022/08/29 07:50:19;;;;;;;10.77;3.60;;;;;;;21.45;100.00;102204.34;5275107;28;20369;-72
2022/08/29 07:52:51;;;;;;;11.35;3.13;;;;;;;21.55;100.00;102199.31;5274651;28;20030;-72
2022/08/29 07:55:21;;;;;;;11.40;3.60;;;;;;;21.31;100.00;102203.44;5286765;28;20045;-72
2022/08/29 07:57:52;;;;;;;10.40;3.17;;;;;;;20.93;100.00;102200.31;5276803;28;20366;-72
2022/08/29 08:00:23;;;;;;;11.02;2.95;;;;;;;20.41;100.00;102202.47;5253624;28;20059;-71
2022/08/29 08:02:54;;;;;;;10.90;3.70;;;;;;;20.11;100.00;102207.28;5267938;28;20030;-72
2022/08/29 08:05:24;;;;;;;12.13;2.72;;;;;;;20.05;100.00;102199.88;5266342;28;20938;-71
2022/08/29 08:07:55;;;;;;;10.02;2.70;;;;;;;19.97;100.00;102204.63;5267871;28;20029;-72
2022/08/29 08:10:26;;;;;;;9.93;2.55;;;;;;;19.65;100.00;102212.28;5271820;28;20416;-71
2022/08/29 08:12:56;;;;;;;10.85;2.83;;;;;;;19.38;100.00;102217.41;5275681;28;20035;-72
2022/08/29 08:15:27;;;;;;;7.18;2.92;;;;;;;19.11;100.00;102223.53;5272605;28;20027;-72
2022/08/29 08:17:58;;;;;;;12.52;3.33;;;;;;;19.04;100.00;102222.63;5275093;28;20024;-71
2022/08/29 08:20:28;;;;;;;9.45;3.25;;;;;;;19.08;100.00;102227.50;5256096;28;20058;-71
2022/08/29 08:22:59;;;;;;;6.95;2.90;;;;;;;19.18;100.00;102227.19;5287592;28;20031;-72
2022/08/29 08:25:30;;;;;;;8.27;3.08;;;;;;;19.22;100.00;102227.63;5265927;28;20058;-71
2022/08/29 08:28:01;;;;;;;10.70;2.95;;;;;;;19.30;100.00;102224.81;5274156;28;20035;-72
2022/08/29 08:30:33;;;;;;;7.22;3.03;;;;;;;19.47;100.00;102230.88;5277351;28;20024;-71
2022/08/29 08:33:03;;;;;;;8.65;3.08;;;;;;;19.87;100.00;102229.47;5267088;28;20062;-72
2022/08/29 08:35:36;;;;;;;11.35;3.90;;;;;;;20.22;100.00;102215.94;5270706;28;20027;-72
2022/08/29 08:38:08;;;;;;;12.75;3.05;;;;;;;20.59;100.00;102220.25;5286518;28;20024;-72
2022/08/29 08:40:44;;;;;;;7.38;2.88;;;;;;;20.79;100.00;102217.66;5256136;28;20141;-72
2022/08/29 08:43:19;;;;;;;9.85;2.78;;;;;;;21.03;100.00;102222.59;5274732;28;20076;-72
2022/08/29 08:45:50;;;;;;;11.70;3.83;;;;;;;20.93;100.00;102219.41;5285150;28;20055;-72
2022/08/29 08:48:24;;;;;;;11.60;3.40;;;;;;;21.06;100.00;102226.81;5266541;28;20031;-71
2022/08/29 08:51:02;;;;;;;9.85;3.55;;;;;;;20.92;100.00;102232.19;5280527;28;20031;-71
2022/08/29 08:53:38;;;;;;;7.13;3.00;;;;;;;20.65;100.00;102227.63;5279087;28;20019;-72
2022/08/29 08:56:42;;;;;;;11.52;3.53;;;;;;;20.31;100.00;102229.22;5255187;28;20023;-72
2022/08/29 08:59:19;;;;;;;15.27;3.30;;;;;;;20.04;100.00;102230.06;5287815;28;20103;-72
2022/08/29 09:02:10;;;;;;;8.30;2.97;;;;;;;19.97;100.00;102234.59;5273294;28;20118;-72
2022/08/29 09:05:06;;;;;;;11.93;3.17;;;;;;;20.35;100.00;102225.06;5265879;28;20085;-71
2022/08/29 09:08:04;;;;;;;10.82;4.00;;;;;;;20.92;100.00;102218.56;5266190;28;20424;-72
2022/08/29 09:10:57;;;;;;;9.07;3.25;;;;;;;21.84;100.00;102219.97;5284802;28;20034;-72
2022/08/29 09:13:35;;;;;;;5.97;2.90;;;;;;;22.42;95.86;102217.50;5286728;28;20103;-72
2022/08/29 09:16:16;;;;;;;13.18;3.78;;;;;;;22.94;90.55;102221.22;5287238;28;20023;-72
2022/08/29 09:18:46;;;;;;;10.27;3.45;;;;;;;23.40;88.79;102214.72;5272697;28;20395;-72
2022/08/29 09:21:19;;;;;;;6.97;3.25;;;;;;;23.56;84.52;102224.31;5273976;28;20028;-72
2022/08/29 09:23:58;;;;;;;9.85;3.47;;;;;;;23.91;85.60;102223.91;5272874;28;20059;-72
2022/08/29 09:26:28;;;;;;;10.82;3.53;;;;;;;24.40;82.87;102214.03;5284230;28;20427;-72
2022/08/29 09:28:59;;;;;;;8.52;3.55;;;;;;;24.59;78.42;102218.50;5280741;28;20080;-73
2022/08/29 09:31:32;;;;;;;10.57;3.63;;;;;;;24.76;77.08;102221.50;5286722;28;20031;-72
2022/08/29 09:34:07;;;;;;;13.65;3.60;;;;;;;25.04;75.68;102221.78;5277013;28;20020;-72
2022/08/29 09:36:54;;;;;;;12.57;3.60;;;;;;;24.78;73.44;102213.88;5273285;28;20114;-72
2022/08/29 09:39:28;;;;;;;12.40;3.65;;;;;;;24.46;73.34;102210.41;5269056;28;20031;-72
2022/08/29 09:42:11;;;;;;;13.77;4.38;;;;;;;24.62;74.37;102219.94;5277137;28;20028;-72
2022/08/29 09:47:41;;;;;;;8.75;3.40;;;;;;;24.18;70.51;102217.16;5282224;28;20456;-73
2022/08/29 09:50:30;;;;;;;9.05;3.60;;;;;;;24.32;71.68;102206.06;5277830;28;20024;-73
2022/08/29 09:53:05;;;;;;;15.02;3.53;;;;;;;24.52;73.99;102209.50;5273514;28;20507;-72
2022/08/29 09:55:54;;;;;;;;;;;;;;;24.95;71.90;102208.59;5270293;28;20098;-72
2022/08/29 09:58:31;;;;;;;8.95;3.65;;;;;;;25.21;69.89;102208.31;5277777;28;19942;-72
2022/08/29 10:01:05;;;;;;;13.45;3.63;;;;;;;25.42;69.95;102197.91;5272957;28;20024;-72
2022/08/29 10:03:40;;;;;;;17.02;4.25;;;;;;;25.61;68.87;102198.69;5284811;28;20096;-72
2022/08/29 10:06:14;;;;;;;8.00;3.50;;;;;;;25.20;65.44;102201.16;5265415;28;20028;-73
2022/08/29 10:09:00;;;;;;;10.32;3.80;;;;;;;24.80;65.78;102198.88;5282347;28;20022;-73
2022/08/29 10:11:40;;;;;;;9.40;3.03;;;;;;;24.64;67.39;102204.09;5286235;28;20066;-72
2022/08/29 10:14:21;;;;;;;6.40;3.13;;;;;;;24.22;68.84;102198.34;5273343;28;20080;-72
2022/08/29 10:18:19;;;;;;;9.50;3.15;;;;;;;24.15;66.59;102190.19;5269117;28;20431;-72
2022/08/29 10:19:50;;;;;;;7.20;3.22;;;;;;;24.01;67.63;102200.44;5280206;28;20024;-72
2022/08/29 10:22:31;;;;;;;10.13;3.88;;;;;;;23.91;68.76;102182.81;5286071;28;20434;-73
2022/08/29 10:25:08;;;;;;;9.88;3.70;;;;;;;24.12;68.88;102185.16;5281045;28;20035;-72
2022/08/29 10:28:00;;;;;;;5.55;3.03;;;;;;;23.87;66.44;102187.06;5268882;28;20481;-73
2022/08/29 10:31:01;;;;;;;9.80;3.17;;;;;;;23.98;68.58;102187.16;5289929;28;20393;-72
2022/08/29 10:33:53;;;;;;;8.70;3.55;;;;;;;24.23;67.95;102172.59;5277977;28;20113;-72
2022/08/29 10:36:31;;;;;;;9.80;3.53;;;;;;;24.31;66.77;102180.56;5270105;28;20030;-72
2022/08/29 10:39:16;;;;;;;9.55;3.28;;;;;;;24.24;65.41;102168.78;5289758;28;20377;-73
2022/08/29 10:42:03;;;;;;;11.20;3.22;;;;;;;23.86;66.16;102183.47;5280372;28;20034;-72
2022/08/29 10:45:02;;;;;;;10.70;3.58;;;;;;;23.66;66.51;102180.03;5288592;28;20126;-72
2022/08/29 10:47:40;;;;;;;7.85;3.38;;;;;;;23.68;68.58;102173.25;5290820;28;20051;-73
2022/08/29 10:50:18;;;;;;;7.50;3.00;;;;;;;23.97;68.58;102166.31;5281337;28;20031;-72
2022/08/29 10:52:56;;;;;;;9.30;3.10;;;;;;;23.94;66.39;102172.22;5290224;28;20026;-72
2022/08/29 10:55:35;;;;;;;14.20;3.65;;;;;;;24.15;69.82;102164.69;5289360;28;20038;-73
2022/08/29 10:58:25;;;;;;;12.77;3.65;;;;;;;24.42;66.33;102163.38;5279892;28;20408;-73
2022/08/29 11:01:04;;;;;;;8.77;3.45;;;;;;;24.49;66.11;102158.66;5289928;28;20106;-73
2022/08/29 11:03:45;;;;;;;7.30;3.20;;;;;;;24.44;63.63;102160.41;5258439;28;20028;-73
2022/08/29 11:06:21;;;;;;;10.43;3.92;;;;;;;24.37;63.38;102146.78;5278859;28;20035;-73
2022/08/29 11:09:01;;;;;;;23.73;3.63;;;;;;;24.47;64.42;102146.25;5287673;28;20057;-73
2022/08/29 11:11:35;;;;;;;13.77;4.03;;;;;;;24.49;65.96;102138.63;5276620;28;20032;-73
2022/08/29 11:14:14;;;;;;;10.80;2.87;;;;;;;24.40;65.88;102135.34;5289332;28;20026;-73
2022/08/29 11:16:48;;;;;;;10.27;3.63;;;;;;;24.70;67.54;102137.31;5289894;28;20107;-73
2022/08/29 11:19:48;;;;;;;7.28;3.40;;;;;;;24.89;64.69;102141.72;5259940;28;20295;-73
2022/08/29 11:22:38;;;;;;;9.80;3.20;;;;;;;24.76;66.45;102133.69;5277891;28;20088;-73
2022/08/29 11:25:12;;;;;;;11.85;3.45;;;;;;;25.01;66.80;102128.91;5289016;28;20422;-73
2022/08/29 11:27:51;;;;;;;5.75;3.47;;;;;;;25.19;64.15;102132.72;5271373;28;20023;-73
2022/08/29 11:30:35;;;;;;;15.02;3.53;;;;;;;25.50;65.07;102118.75;5280223;28;20023;-72
2022/08/29 11:33:32;;;;;;;7.05;2.83;;;;;;;25.83;62.96;102128.38;5286940;28;20027;-73
2022/08/29 11:36:40;;;;;;;6.32;3.00;;;;;;;25.82;61.34;102129.47;5289006;28;20027;-72
2022/08/29 11:39:49;;;;;;;5.32;2.88;;;;;;;25.63;58.52;102125.09;5257011;28;20421;-73
2022/08/29 11:42:26;;;;;;;9.95;3.00;;;;;;;25.02;60.13;102119.59;5289027;28;20028;-73
2022/08/29 11:44:59;;;;;;;8.32;3.00;;;;;;;25.04;61.40;102122.94;5289010;28;20523;-73
2022/08/29 11:47:33;;;;;;;7.47;3.05;;;;;;;25.34;61.72;102122.16;5275022;28;20072;-73
2022/08/29 11:50:15;;;;;;;11.47;3.60;;;;;;;25.38;59.13;102117.03;5289275;28;20077;-73
2022/08/29 11:53:01;;;;;;;7.10;3.25;;;;;;;25.69;59.78;102108.50;5270812;28;20032;-73